Time;durP1;ratioP1;P1;durP2;ratioP2;P2;SDS_P1;SDS_P2;PMS_P1;PMS_P2;Temp;Humidity;BMP_temperature;BMP_pressure;BME280_temperature;BME280_humidity;BME280_pressure;Samples;Min_cycle;Max_cycle;Signal;HPM_P1;HPM_P2
2022/08/13 00:00:59;;;;;;;2.65;2.55;;;16.60;92.90;;;17.45;58.16;97923.56;5195278;28;20210;-80
2022/08/13 00:03:33;;;;;;;2.83;2.50;;;16.50;93.00;;;17.50;57.91;97927.16;5198558;28;20218;-80
2022/08/13 00:09:26;;;;;;;2.95;2.75;;;16.60;92.70;;;17.47;58.32;97930.53;5197051;28;20702;-80
2022/08/13 00:15:14;;;;;;;3.15;2.95;;;16.70;92.70;;;17.53;57.75;97925.53;5202613;28;20245;-80
2022/08/13 00:17:50;;;;;;;2.50;2.40;;;16.70;92.40;;;17.56;57.54;97930.81;5198122;28;20776;-80
2022/08/13 00:20:42;;;;;;;2.70;2.60;;;16.80;92.20;;;17.61;57.59;97935.25;5192473;28;20195;-80
2022/08/13 00:23:29;;;;;;;2.78;2.58;;;16.80;91.90;;;17.56;58.11;97933.38;5189808;28;20249;-78
2022/08/13 00:26:22;;;;;;;2.95;2.75;;;16.70;92.70;;;17.64;58.39;97931.03;5188727;28;20270;-80
2022/08/13 00:29:06;;;;;;;2.65;2.53;;;16.70;93.00;;;17.52;58.24;97923.81;5194017;28;20282;-80
2022/08/13 00:31:49;;;;;;;3.10;2.90;;;16.60;93.30;;;17.46;58.78;97920.16;5198611;28;20205;-78
2022/08/13 00:34:23;;;;;;;2.58;2.40;;;16.50;93.40;;;17.37;58.69;97910.41;5193759;28;20217;-79
2022/08/13 00:36:57;;;;;;;3.58;2.53;;;16.40;93.40;;;17.34;59.02;97906.03;5194195;28;20301;-79
2022/08/13 00:39:40;;;;;;;2.75;2.65;;;16.40;93.40;;;17.41;58.67;97901.03;5192153;28;20203;-79
2022/08/13 00:42:33;;;;;;;2.67;2.53;;;16.50;93.50;;;17.36;59.03;97897.44;5188568;28;20278;-79
2022/08/13 00:45:23;;;;;;;3.38;3.08;;;16.50;93.40;;;17.28;58.70;97899.78;5191708;28;20198;-80
2022/08/13 00:50:51;;;;;;;3.10;2.90;;;16.50;93.40;;;17.31;59.00;97899.88;5201672;28;20226;-79
2022/08/13 00:53:27;;;;;;;2.88;2.60;;;16.40;93.70;;;17.30;59.35;97898.13;5192428;28;20226;-79
2022/08/13 00:56:17;;;;;;;3.38;3.17;;;16.40;94.00;;;17.26;59.78;97893.69;5205906;28;20288;-80
2022/08/13 00:58:52;;;;;;;3.08;2.88;;;16.30;94.30;;;17.20;59.69;97890.94;5198963;28;20202;-80
2022/08/13 01:01:27;;;;;;;2.90;2.70;;;16.20;94.30;;;17.18;59.67;97895.16;5204679;28;20194;-80
2022/08/13 01:04:08;;;;;;;2.42;2.33;;;16.20;94.20;;;17.16;59.57;97896.81;5207007;28;20222;-80
2022/08/13 01:06:46;;;;;;;2.88;2.67;;;16.30;94.50;;;17.16;60.26;97891.66;5192228;28;20673;-80
2022/08/13 01:09:29;;;;;;;3.58;3.33;;;16.10;95.00;;;16.94;60.98;97892.66;5200919;28;20215;-80
2022/08/13 01:12:26;;;;;;;3.30;3.10;;;15.90;95.20;;;16.80;61.15;97889.66;5193906;28;20262;-79
2022/08/13 01:15:02;;;;;;;3.20;2.90;;;15.90;95.40;;;16.76;61.32;97882.56;5201213;28;20812;-80
2022/08/13 01:17:36;;;;;;;3.25;3.05;;;15.80;95.80;;;16.74;61.89;97884.22;5206941;28;20247;-81
2022/08/13 01:20:27;;;;;;;3.22;2.92;;;15.80;96.10;;;16.73;62.12;97882.47;5203818;28;20194;-80
2022/08/13 01:23:08;;;;;;;3.28;2.90;;;15.70;96.30;;;16.62;62.44;97880.41;5206003;28;20236;-79
2022/08/13 01:25:44;;;;;;;3.10;2.80;;;15.60;96.70;;;16.55;62.74;97891.34;5202645;28;20252;-80
2022/08/13 01:28:33;;;;;;;3.30;3.00;;;15.50;97.00;;;16.55;62.83;97881.03;5193946;28;20259;-80
2022/08/13 01:31:15;;;;;;;3.05;2.78;;;15.50;97.20;;;16.45;63.38;97881.53;5204459;28;20209;-79
2022/08/13 01:33:59;;;;;;;3.60;3.30;;;15.50;97.20;;;16.43;63.23;97883.22;5200072;28;20262;-80
2022/08/13 01:36:38;;;;;;;3.38;3.17;;;15.50;97.50;;;16.32;63.83;97885.41;5209593;28;20966;-79
2022/08/13 01:39:30;;;;;;;3.95;3.65;;;15.30;97.90;;;16.29;63.92;97889.59;5196418;28;20198;-80
2022/08/13 01:42:20;;;;;;;4.05;3.65;;;15.30;98.10;;;16.26;63.78;97886.91;5195797;28;20198;-80
2022/08/13 01:45:06;;;;;;;3.40;3.20;;;15.30;98.20;;;16.24;64.14;97888.53;5201940;28;20312;-80
2022/08/13 01:50:46;;;;;;;3.90;3.60;;;15.20;98.60;;;16.16;64.85;97889.13;5193714;28;20634;-80
2022/08/13 01:53:25;;;;;;;3.30;3.10;;;15.20;98.80;;;16.07;65.19;97888.81;5191381;28;20237;-80
2022/08/13 01:56:01;;;;;;;3.38;3.17;;;15.10;99.10;;;16.05;64.95;97892.16;5207686;28;20228;-80
2022/08/13 01:58:51;;;;;;;3.40;3.10;;;15.10;99.20;;;15.98;65.46;97893.66;5205045;28;20226;-81
2022/08/13 02:01:44;;;;;;;3.80;3.50;;;14.90;99.50;;;15.92;65.61;97891.72;5204928;28;20244;-79
2022/08/13 02:04:21;;;;;;;3.75;3.47;;;14.90;99.60;;;15.72;66.31;97890.97;5201818;28;20226;-80
2022/08/13 02:06:59;;;;;;;3.97;3.67;;;14.80;99.80;;;15.83;66.16;97893.09;5202343;28;20276;-80
2022/08/13 02:09:41;;;;;;;3.65;3.35;;;14.80;99.80;;;15.82;66.27;97892.19;5205337;28;20213;-80
2022/08/13 02:12:36;;;;;;;3.88;3.58;;;14.90;99.90;;;15.86;66.32;97888.06;5198415;28;20218;-80
2022/08/13 02:15:11;;;;;;;3.78;3.50;;;14.90;99.90;;;15.83;66.27;97881.09;5196580;28;20222;-80
2022/08/13 02:17:45;;;;;;;3.65;3.20;;;14.90;99.90;;;15.80;66.41;97885.25;5207361;28;20216;-79
2022/08/13 02:20:36;;;;;;;3.47;3.28;;;14.80;99.90;;;15.68;67.18;97886.56;5198038;28;20213;-80
2022/08/13 02:23:09;;;;;;;3.25;3.05;;;14.70;99.90;;;15.68;66.93;97890.81;5200425;28;20259;-79
2022/08/13 02:25:45;;;;;;;3.80;3.60;;;14.70;99.90;;;15.68;67.34;97883.97;5195013;28;20206;-79
2022/08/13 02:28:32;;;;;;;3.47;3.17;;;14.70;99.90;;;15.63;67.57;97888.03;5189269;28;20237;-80
2022/08/13 02:31:05;;;;;;;3.60;3.40;;;14.70;99.90;;;15.67;67.20;97897.63;5201280;28;20226;-80
2022/08/13 02:33:54;;;;;;;3.65;3.45;;;14.70;99.90;;;15.71;67.08;97889.25;5192014;28;20233;-79
2022/08/13 02:36:27;;;;;;;4.03;3.60;;;14.80;99.90;;;15.86;66.76;97894.06;5192654;28;20251;-80
2022/08/13 02:39:04;;;;;;;3.25;3.05;;;14.80;99.90;;;15.77;67.13;97889.47;5203239;28;20355;-80
2022/08/13 02:41:42;;;;;;;3.90;3.60;;;14.80;99.90;;;15.66;67.50;97895.00;5206833;28;20329;-78
2022/08/13 02:44:26;;;;;;;3.35;3.15;;;14.70;99.90;;;15.52;67.82;97895.34;5200638;28;20218;-79
2022/08/13 02:47:07;;;;;;;3.88;3.58;;;14.50;99.90;;;15.48;67.93;97897.75;5200744;28;20206;-78
2022/08/13 02:49:41;;;;;;;3.65;3.40;;;14.50;99.90;;;15.46;68.10;97897.69;5193380;28;20202;-77
2022/08/13 02:52:20;;;;;;;3.38;3.17;;;14.50;99.90;;;15.42;68.05;97898.38;5194600;28;20211;-79
2022/08/13 02:54:54;;;;;;;3.30;3.10;;;14.50;99.90;;;15.42;68.68;97893.22;5203291;28;20235;-79
2022/08/13 02:57:30;;;;;;;3.70;3.50;;;14.50;99.90;;;15.42;68.81;97900.09;5197852;28;20674;-78
2022/08/13 03:00:09;;;;;;;3.53;3.33;;;14.50;99.90;;;15.37;68.38;97893.91;5200110;28;20206;-79
2022/08/13 03:02:45;;;;;;;3.78;3.58;;;14.40;99.90;;;15.38;68.08;97898.22;5193921;28;20202;-79
2022/08/13 03:05:20;;;;;;;3.80;3.60;;;14.40;99.90;;;15.32;68.95;97884.28;5205561;28;20244;-79
2022/08/13 03:08:03;;;;;;;3.90;3.60;;;14.40;99.90;;;15.28;68.35;97887.56;5202374;28;20203;-79
2022/08/13 03:10:42;;;;;;;3.97;3.67;;;14.40;99.90;;;15.12;69.34;97880.06;5198030;28;20572;-78
2022/08/13 03:13:23;;;;;;;3.45;3.25;;;14.10;99.90;;;15.19;69.06;97876.88;5203779;28;20302;-79
2022/08/13 03:15:58;;;;;;;4.18;3.88;;;14.20;99.90;;;15.16;69.36;97881.91;5199122;28;20202;-79
2022/08/13 03:18:36;;;;;;;3.67;3.47;;;14.20;99.90;;;15.19;69.36;97882.03;5204397;28;20205;-79
2022/08/13 03:21:30;;;;;;;3.53;3.22;;;14.30;99.90;;;15.15;69.52;97880.19;5194665;28;20205;-79
2022/08/13 03:24:19;;;;;;;3.80;3.60;;;14.20;99.90;;;15.10;69.17;97882.56;5203472;28;20728;-79
2022/08/13 03:27:02;;;;;;;4.47;4.07;;;14.10;99.90;;;15.06;69.88;97878.13;5207923;28;20297;-77
2022/08/13 03:29:36;;;;;;;3.85;3.50;;;14.10;99.90;;;14.98;70.12;97886.34;5202741;28;20876;-79
2022/08/13 03:32:30;;;;;;;3.92;3.58;;;14.00;99.90;;;14.96;70.42;97882.81;5194805;28;20218;-79
2022/08/13 03:35:05;;;;;;;3.85;3.55;;;14.00;99.90;;;14.88;70.50;97882.53;5202524;28;20257;-79
2022/08/13 03:37:46;;;;;;;3.70;3.50;;;13.90;99.90;;;14.81;70.80;97885.66;5208214;28;20201;-79
2022/08/13 03:40:22;;;;;;;4.00;3.70;;;13.90;99.90;;;14.81;70.73;97891.69;5196429;28;20193;-78
2022/08/13 03:43:08;;;;;;;4.32;4.03;;;13.80;99.90;;;14.72;70.91;97886.16;5194633;28;20206;-79
2022/08/13 03:45:48;;;;;;;3.50;3.30;;;13.70;99.90;;;14.70;71.50;97892.06;5196146;28;20296;-80
2022/08/13 03:48:27;;;;;;;3.95;3.65;;;13.80;99.90;;;14.69;71.20;97888.63;5196696;28;20218;-80
2022/08/13 03:51:00;;;;;;;3.90;3.63;;;13.80;99.90;;;14.72;70.47;97883.59;5195087;28;20916;-79
2022/08/13 03:53:35;;;;;;;3.95;3.70;;;13.80;99.90;;;14.77;70.24;97874.38;5190450;28;20245;-79
2022/08/13 03:56:18;;;;;;;4.18;3.97;;;13.80;99.90;;;14.75;71.42;97872.56;5201160;28;20226;-79
2022/08/13 03:58:53;;;;;;;3.90;3.60;;;13.80;99.90;;;14.72;70.68;97872.44;5200653;28;20202;-79
2022/08/13 04:01:27;;;;;;;3.67;3.42;;;13.70;99.90;;;14.64;71.59;97875.56;5191911;28;20206;-80
2022/08/13 04:04:05;;;;;;;3.45;3.25;;;13.70;99.90;;;14.65;70.94;97876.47;5195851;28;20236;-79
2022/08/13 04:06:41;;;;;;;4.05;3.75;;;13.70;99.90;;;14.58;72.00;97880.44;5199065;28;20206;-79
2022/08/13 04:09:18;;;;;;;3.45;3.25;;;13.70;99.90;;;14.64;71.03;97885.84;5201252;28;20578;-79
2022/08/13 04:11:55;;;;;;;3.67;3.42;;;13.60;99.90;;;14.65;71.37;97884.19;5195202;28;20225;-81
2022/08/13 04:14:39;;;;;;;3.90;3.70;;;13.60;99.90;;;14.53;71.06;97881.06;5200068;28;20229;-79
2022/08/13 04:17:13;;;;;;;4.50;4.20;;;13.50;99.90;;;14.45;72.03;97882.41;5200891;28;20225;-79
2022/08/13 04:19:49;;;;;;;4.00;3.80;;;13.50;99.90;;;14.43;72.17;97885.81;5203126;28;20207;-78
2022/08/13 04:22:23;;;;;;;4.07;3.78;;;13.60;99.90;;;14.41;72.37;97887.41;5193813;28;20815;-79
2022/08/13 04:24:58;;;;;;;3.88;3.58;;;13.60;99.90;;;14.46;72.67;97894.47;5201469;28;20222;-79
2022/08/13 04:27:34;;;;;;;4.00;3.70;;;13.60;99.90;;;14.47;71.75;97891.94;5199071;28;20202;-78
2022/08/13 04:30:11;;;;;;;4.10;3.90;;;13.60;99.90;;;14.49;72.46;97889.44;5195949;28;20199;-79
2022/08/13 04:32:45;;;;;;;4.22;3.83;;;13.60;99.90;;;14.51;72.22;97886.13;5196797;28;20229;-79
2022/08/13 04:35:40;;;;;;;3.85;3.65;;;13.70;99.90;;;14.55;72.51;97879.44;5193529;28;20211;-79
2022/08/13 04:38:25;;;;;;;4.03;3.83;;;13.70;99.90;;;14.49;72.00;97871.44;5204649;28;20252;-77
2022/08/13 04:40:59;;;;;;;4.28;4.07;;;13.60;99.90;;;14.48;72.12;97874.81;5196295;28;20205;-78
2022/08/13 04:43:36;;;;;;;4.57;4.18;;;13.50;99.90;;;14.40;72.44;97885.69;5193361;28;20313;-79
2022/08/13 04:46:10;;;;;;;3.97;3.78;;;13.40;99.90;;;14.44;72.83;97889.25;5194245;28;20206;-79
2022/08/13 04:48:44;;;;;;;4.40;4.13;;;13.50;99.90;;;14.45;72.29;97884.97;5198783;28;20206;-80
2022/08/13 04:51:19;;;;;;;3.90;3.60;;;13.50;99.90;;;14.47;72.79;97881.66;5189405;28;20733;-78
2022/08/13 04:53:54;;;;;;;4.03;3.70;;;13.50;99.90;;;14.40;72.26;97890.81;5191236;28;20237;-78
2022/08/13 04:56:28;;;;;;;3.92;3.72;;;13.40;99.90;;;14.37;72.55;97890.69;5192648;28;20233;-78
2022/08/13 04:59:02;;;;;;;4.38;4.18;;;13.30;99.90;;;14.38;72.84;97884.72;5193517;28;20202;-78
2022/08/13 05:01:35;;;;;;;4.03;3.70;;;13.40;99.90;;;14.36;73.28;97883.75;5189516;28;20633;-78
2022/08/13 05:04:29;;;;;;;3.97;3.70;;;13.40;99.90;;;14.43;73.46;97885.81;5188112;28;20227;-79
2022/08/13 05:07:07;;;;;;;4.38;4.03;;;13.60;99.90;;;14.53;72.59;97887.09;5200139;28;20213;-78
2022/08/13 05:09:41;;;;;;;4.40;4.10;;;13.60;99.90;;;14.54;72.46;97881.16;5191186;28;20205;-77
2022/08/13 05:12:25;;;;;;;4.50;4.22;;;13.60;99.90;;;14.62;72.15;97886.59;5192239;28;20226;-79
2022/08/13 05:15:14;;;;;;;4.45;4.15;;;13.70;99.90;;;14.67;72.60;97885.09;5188467;28;20210;-79
2022/08/13 05:18:07;;;;;;;4.82;4.43;;;13.90;99.90;;;14.86;72.44;97887.63;5192392;28;20194;-79
2022/08/13 05:20:50;;;;;;;4.63;4.30;;;14.00;99.90;;;14.94;71.80;97898.22;5191781;28;20202;-79
2022/08/13 05:23:27;;;;;;;4.88;4.47;;;14.00;99.90;;;14.98;71.98;97891.50;5188931;28;20261;-80
2022/08/13 05:26:22;;;;;;;4.38;4.18;;;14.10;99.90;;;15.19;71.19;97897.50;5191652;28;20209;-79
2022/08/13 05:29:16;;;;;;;5.00;4.60;;;14.20;99.90;;;15.83;69.58;97900.81;5181705;28;20194;-79
2022/08/13 05:31:49;;;;;;;4.63;4.22;;;14.90;99.90;;;16.57;66.75;97897.47;5188599;28;20205;-77
2022/08/13 05:34:29;;;;;;;5.18;4.80;;;15.70;99.90;;;17.25;64.38;97897.09;5192857;28;20222;-78
2022/08/13 05:37:02;;;;;;;4.40;4.20;;;16.40;99.50;;;17.86;62.49;97896.41;5189064;28;20205;-78
2022/08/13 05:39:57;;;;;;;4.30;4.00;;;17.00;98.10;;;18.48;58.92;97887.72;5192122;28;20557;-78
2022/08/13 05:42:39;;;;;;;4.07;3.88;;;17.50;96.20;;;19.08;57.69;97887.56;5185919;28;20284;-77
2022/08/13 05:45:15;;;;;;;4.25;3.95;;;17.90;95.30;;;19.64;55.83;97889.72;5179394;28;20202;-78
2022/08/13 05:47:51;;;;;;;4.55;4.10;;;18.30;94.10;;;20.06;54.42;97894.97;5188322;28;20206;-79
2022/08/13 05:50:27;;;;;;;4.57;4.18;;;18.70;93.00;;;20.31;53.46;97885.91;5193564;28;20206;-81
2022/08/13 05:53:07;;;;;;;4.75;4.45;;;19.00;92.30;;;20.83;51.54;97901.59;5190466;28;20226;-80
2022/08/13 05:55:44;;;;;;;4.28;3.97;;;19.30;91.30;;;21.18;50.48;97904.78;5188117;28;20225;-80
2022/08/13 05:58:37;;;;;;;4.47;4.18;;;19.30;90.90;;;21.42;49.68;97888.72;5186093;28;20214;-80
2022/08/13 06:04:04;;;;;;;4.43;4.13;;;19.40;90.80;;;21.50;49.07;97886.22;5185015;28;20255;-80
2022/08/13 06:06:57;;;;;;;4.28;3.97;;;19.40;90.80;;;21.48;49.31;97883.59;5192417;28;20285;-80
2022/08/13 06:09:31;;;;;;;4.50;4.22;;;19.20;91.20;;;22.02;48.67;97877.34;5199574;28;20206;-78
2022/08/13 06:12:08;;;;;;;4.20;3.90;;;19.60;90.90;;;22.57;46.95;97882.31;5188989;28;20256;-78
2022/08/13 06:15:01;;;;;;;5.68;4.57;;;20.20;89.30;;;22.82;46.39;97885.19;5184266;28;20215;-78
2022/08/13 06:17:41;;;;;;;4.45;4.15;;;20.50;88.20;;;23.32;44.88;97890.84;5191111;28;20202;-77
2022/08/13 06:20:15;;;;;;;4.47;4.18;;;21.00;85.50;;;23.80;43.66;97881.56;5191892;28;20276;-78
2022/08/13 06:22:53;;;;;;;4.45;4.07;;;21.30;83.90;;;23.89;43.36;97888.56;5184718;28;20210;-79
2022/08/13 06:25:27;;;;;;;3.78;3.50;;;21.20;83.90;;;24.20;43.13;97878.25;5194691;28;20236;-79
2022/08/13 06:28:05;;;;;;;4.25;3.65;;;21.30;83.90;;;24.35;42.43;97887.88;5190218;28;20206;-78
2022/08/13 06:30:39;;;;;;;4.40;4.00;;;21.70;82.00;;;24.62;42.12;97887.09;5187282;28;20602;-78
2022/08/13 06:33:23;;;;;;;4.20;3.90;;;21.80;81.90;;;24.98;41.41;97886.28;5190101;28;20222;-79
2022/08/13 06:36:17;;;;;;;3.78;3.47;;;22.20;80.50;;;25.12;40.82;97894.09;5183952;28;20726;-79
2022/08/13 06:38:59;;;;;;;3.80;3.50;;;22.40;79.90;;;25.56;40.28;97888.84;5184884;28;20760;-79
2022/08/13 06:41:35;;;;;;;3.63;3.17;;;22.90;78.50;;;25.81;39.41;97878.28;5185822;28;20199;-77
2022/08/13 06:44:31;;;;;;;3.65;3.35;;;23.30;76.40;;;25.80;39.85;97884.44;5195068;28;20330;-76
2022/08/13 06:47:05;;;;;;;4.80;3.17;;;23.50;76.60;;;26.03;38.78;97885.25;5185944;28;20262;-78
2022/08/13 06:49:40;;;;;;;3.33;3.13;;;23.80;74.60;;;26.45;37.56;97896.41;5186332;28;20295;-80
2022/08/13 06:52:31;;;;;;;3.58;3.25;;;24.10;73.20;;;26.51;37.36;97895.53;5189456;28;20249;-79
2022/08/13 06:55:07;;;;;;;3.05;2.80;;;23.80;73.50;;;26.65;37.73;97898.06;5194615;28;20316;-79
2022/08/13 06:58:00;;;;;;;3.30;3.10;;;24.20;73.30;;;26.75;37.49;97894.50;5197053;28;20220;-79
2022/08/13 07:00:49;;;;;;;2.70;2.50;;;24.40;72.30;;;26.80;37.32;97897.97;5199791;28;20232;-78
2022/08/13 07:03:28;;;;;;;3.10;2.90;;;24.50;71.80;;;27.04;36.71;97903.91;5196130;28;20218;-78
2022/08/13 07:06:24;;;;;;;2.70;2.50;;;24.70;70.80;;;26.78;37.19;97904.97;5197879;28;20255;-79
2022/08/13 07:09:02;;;;;;;3.03;2.70;;;24.50;70.90;;;26.83;37.41;97900.56;5194737;28;20206;-80
2022/08/13 07:11:37;;;;;;;2.95;2.75;;;24.50;71.90;;;27.16;36.57;97901.22;5204987;28;20231;-78
2022/08/13 07:14:15;;;;;;;3.17;2.72;;;24.90;70.10;;;27.53;35.91;97898.28;5193861;28;20227;-78
2022/08/13 07:16:49;;;;;;;3.08;2.85;;;25.40;68.90;;;27.54;35.68;97892.97;5188256;28;20233;-78
2022/08/13 07:19:23;;;;;;;3.08;2.88;;;25.90;67.60;;;27.98;35.60;97899.53;5199840;28;20197;-78
2022/08/13 07:22:16;;;;;;;3.00;2.70;;;26.10;68.00;;;27.68;35.50;97900.72;5189855;28;20206;-80
2022/08/13 07:25:11;;;;;;;3.08;2.78;;;25.90;66.90;;;28.09;34.54;97894.16;5202017;28;20222;-81
2022/08/13 07:27:46;;;;;;;4.95;3.30;;;26.30;66.20;;;28.23;34.57;97892.22;5192718;28;20271;-80
2022/08/13 07:30:28;;;;;;;4.13;2.80;;;26.30;66.20;;;28.47;34.90;97893.69;5192931;28;20194;-79
2022/08/13 07:33:06;;;;;;;3.03;2.80;;;26.40;66.30;;;29.12;33.10;97898.88;5201504;28;20228;-80
2022/08/13 07:35:40;;;;;;;2.65;2.40;;;26.70;65.30;;;29.04;34.25;97894.63;5205296;28;20208;-80
2022/08/13 07:38:28;;;;;;;2.53;2.33;;;26.70;65.80;;;29.61;32.32;97897.13;5203638;28;20229;-81
2022/08/13 07:41:05;;;;;;;2.72;2.53;;;27.00;64.80;;;29.32;32.84;97895.88;5206930;28;20205;-80
2022/08/13 07:43:44;;;;;;;2.70;2.50;;;26.80;65.00;;;29.56;33.54;97889.34;5205037;28;20308;-79
2022/08/13 07:46:42;;;;;;;3.42;2.83;;;26.80;65.50;;;30.03;32.15;97884.91;5192708;28;20210;-80
2022/08/13 07:49:29;;;;;;;3.38;2.80;;;27.30;64.00;;;30.84;30.64;97886.72;5196587;28;20289;-79
2022/08/13 07:52:17;;;;;;;2.80;2.55;;;28.00;62.40;;;29.90;31.40;97891.31;5194618;28;20193;-81
2022/08/13 07:54:50;;;;;;;3.55;2.65;;;27.20;62.80;;;28.57;33.96;97897.06;5207883;28;20233;-79
2022/08/13 07:57:25;;;;;;;2.78;2.50;;;26.20;65.80;;;27.88;35.36;97897.91;5192581;28;20201;-80
2022/08/13 08:00:21;;;;;;;3.00;2.60;;;25.60;67.00;;;27.37;36.63;97895.78;5192099;28;20449;-79
2022/08/13 08:03:01;;;;;;;3.00;2.80;;;25.80;67.70;;;27.78;36.05;97886.59;5187243;28;20214;-79
2022/08/13 08:05:37;;;;;;;3.08;2.80;;;26.30;66.50;;;27.89;35.58;97889.13;5184892;28;20210;-80
2022/08/13 08:08:14;;;;;;;2.95;2.75;;;26.30;65.90;;;27.88;35.89;97892.66;5194101;28;20197;-80
2022/08/13 08:11:02;;;;;;;2.92;2.72;;;26.20;66.40;;;27.24;37.01;97896.75;5185930;28;20206;-80
2022/08/13 08:13:35;;;;;;;3.03;2.80;;;25.60;68.10;;;27.08;37.19;97897.75;5189124;28;20259;-79
2022/08/13 08:16:14;;;;;;;3.10;2.90;;;25.50;68.00;;;26.95;38.06;97902.22;5184187;28;20221;-76
2022/08/13 08:18:49;;;;;;;2.95;2.75;;;25.40;68.80;;;26.87;37.45;97898.78;5191334;28;20203;-78
2022/08/13 08:21:45;;;;;;;3.10;2.85;;;25.40;68.20;;;26.62;37.94;97908.59;5189930;28;20316;-79
2022/08/13 08:24:36;;;;;;;3.20;3.00;;;25.20;68.70;;;26.73;38.18;97904.16;5188458;28;20233;-79
2022/08/13 08:27:10;;;;;;;3.17;2.88;;;25.40;68.50;;;27.12;37.64;97894.22;5192769;28;20277;-79
2022/08/13 08:29:52;;;;;;;3.17;2.90;;;26.00;67.30;;;27.23;36.53;97896.78;5191408;28;20202;-79
2022/08/13 08:32:44;;;;;;;3.30;2.83;;;26.40;65.30;;;27.49;37.72;97893.91;5184784;28;20206;-79
2022/08/13 08:35:18;;;;;;;3.03;2.83;;;26.60;66.40;;;27.48;36.71;97897.44;5192137;28;20248;-79
2022/08/13 08:43:56;;;;;;;2.63;2.38;;;26.70;65.10;;;27.64;36.97;97885.88;5185740;28;20302;-79
2022/08/13 08:46:33;;;;;;;4.13;3.08;;;26.50;66.90;;;27.71;37.19;97890.19;5189494;28;20295;-79
2022/08/13 08:49:08;;;;;;;3.35;2.85;;;26.60;66.20;;;27.76;37.44;97885.75;5189677;28;20252;-78
2022/08/13 08:51:51;;;;;;;3.00;2.80;;;26.60;66.60;;;27.80;36.47;97874.34;5182033;28;20212;-79
2022/08/13 08:54:27;;;;;;;2.95;2.70;;;26.60;65.80;;;27.83;36.25;97874.31;5188207;28;20248;-81
2022/08/13 08:57:05;;;;;;;4.93;3.10;;;26.70;65.30;;;27.92;36.23;97873.31;5185715;28;20293;-79
2022/08/13 08:59:41;;;;;;;2.70;2.50;;;26.80;65.60;;;27.99;35.25;97880.25;5191277;28;20265;-79
2022/08/13 09:02:25;;;;;;;4.18;2.70;;;26.90;63.60;;;27.65;36.51;97878.88;5186482;28;20787;-79
2022/08/13 09:05:01;;;;;;;2.65;2.45;;;26.30;66.50;;;27.60;35.32;97881.53;5189457;28;20217;-79
2022/08/13 09:07:50;;;;;;;2.88;2.67;;;26.50;64.00;;;27.70;36.07;97880.56;5186763;28;20303;-78
2022/08/13 09:10:27;;;;;;;2.70;2.50;;;26.50;64.60;;;27.86;35.73;97883.91;5187112;28;20216;-78
2022/08/13 09:13:04;;;;;;;3.00;2.80;;;26.70;64.30;;;27.74;36.09;97878.78;5195249;28;20222;-80
2022/08/13 09:15:40;;;;;;;2.63;2.42;;;26.50;65.00;;;27.39;35.25;97887.91;5196622;28;20356;-78
2022/08/13 09:18:21;;;;;;;3.08;2.70;;;26.40;63.60;;;27.50;35.59;97885.13;5189859;28;20193;-80
2022/08/13 09:21:03;;;;;;;2.70;2.50;;;26.30;64.40;;;27.44;35.99;97879.94;5199138;28;20202;-80
2022/08/13 09:23:57;;;;;;;2.88;2.67;;;26.20;64.70;;;27.49;36.41;97873.78;5194329;28;20229;-79
2022/08/13 09:26:52;;;;;;;3.72;3.17;;;26.20;65.90;;;27.44;35.75;97874.69;5187756;28;20293;-81
2022/08/13 09:29:32;;;;;;;2.60;2.40;;;26.50;63.70;;;27.77;35.16;97874.34;5196321;28;20209;-81
2022/08/13 09:32:10;;;;;;;2.58;2.42;;;27.00;63.00;;;28.00;34.53;97871.47;5193424;28;20202;-79
2022/08/13 09:35:06;;;;;;;2.92;2.38;;;27.00;61.90;;;28.14;34.18;97868.69;5195197;28;20909;-80
2022/08/13 09:37:40;;;;;;;2.58;2.38;;;27.30;61.60;;;28.19;34.28;97872.13;5200198;28;20227;-81
2022/08/13 09:40:31;;;;;;;2.88;2.75;;;27.50;61.30;;;28.39;33.84;97863.09;5192154;28;20212;-80
2022/08/13 09:43:31;;;;;;;2.58;2.45;;;27.90;60.50;;;28.55;33.96;97856.75;5204895;28;20221;-80
2022/08/13 09:46:23;;;;;;;2.80;2.60;;;28.00;60.70;;;28.68;33.39;97857.44;5195443;28;20190;-81
2022/08/13 09:49:03;;;;;;;2.78;2.58;;;28.20;59.70;;;28.94;32.07;97851.75;5191488;28;20205;-80
2022/08/13 09:51:36;;;;;;;2.75;2.60;;;28.60;58.40;;;29.32;32.46;97855.53;5190778;28;20239;-81
2022/08/13 09:54:30;;;;;;;3.80;2.85;;;29.00;58.70;;;29.56;31.46;97836.63;5190145;28;20240;-81
2022/08/13 09:57:03;;;;;;;3.38;2.58;;;29.20;57.50;;;29.82;32.29;97833.50;5202266;28;20198;-81
2022/08/13 09:59:38;;;;;;;3.60;2.70;;;29.40;58.00;;;29.94;31.17;97837.66;5195963;28;20260;-81
2022/08/13 10:02:19;;;;;;;2.20;2.10;;;29.50;56.90;;;30.11;30.75;97839.09;5195229;28;20202;-81
2022/08/13 10:04:57;;;;;;;2.50;2.30;;;29.60;56.40;;;29.73;30.04;97832.81;5194685;28;20224;-81
2022/08/13 10:07:30;;;;;;;2.22;2.13;;;29.00;56.10;;;29.86;30.23;97821.13;5191498;28;20194;-81
2022/08/13 10:10:20;;;;;;;2.40;2.20;;;29.10;56.20;;;29.75;31.13;97828.38;5185340;28;20206;-82
2022/08/13 10:13:04;;;;;;;2.40;2.20;;;29.20;56.70;;;29.66;29.98;97821.53;5191926;28;20217;-80
2022/08/13 10:15:39;;;;;;;2.65;2.45;;;29.10;55.50;;;29.85;29.90;97806.22;5191547;28;20656;-80
2022/08/13 10:18:13;;;;;;;2.13;2.00;;;29.40;55.50;;;29.62;30.33;97823.38;5196831;28;20225;-81
2022/08/13 10:20:48;;;;;;;3.28;2.10;;;29.20;55.50;;;29.85;27.83;97814.13;5189317;28;20210;-80
2022/08/13 10:23:25;;;;;;;2.72;2.30;;;29.30;53.30;;;29.57;28.68;97822.56;5197454;28;20309;-82
2022/08/13 10:26:07;;;;;;;2.60;2.50;;;29.00;53.80;;;29.40;29.08;97806.22;5191999;28;20217;-81
2022/08/13 10:28:41;;;;;;;2.28;2.08;;;28.90;53.90;;;29.60;28.98;97811.97;5189857;28;20207;-79
2022/08/13 10:31:27;;;;;;;3.58;2.30;;;29.00;54.00;;;29.30;28.65;97812.53;5187349;28;20205;-82
2022/08/13 10:34:22;;;;;;;2.28;2.08;;;28.70;53.90;;;29.52;28.76;97813.88;5189204;28;20236;-81
2022/08/13 10:37:15;;;;;;;2.30;2.20;;;29.00;53.90;;;29.67;28.60;97798.69;5196256;28;20665;-80
2022/08/13 10:39:48;;;;;;;2.42;2.17;;;29.20;53.70;;;29.49;28.36;97798.13;5196602;28;20206;-80
2022/08/13 10:42:27;;;;;;;2.38;2.17;;;29.10;53.50;;;29.71;29.18;97790.69;5191038;28;20203;-81
2022/08/13 10:45:00;;;;;;;2.08;1.98;;;29.20;54.30;;;29.50;29.25;97783.19;5189517;28;20260;-81
2022/08/13 10:47:46;;;;;;;2.30;2.15;;;29.10;54.00;;;29.25;27.93;97794.22;5198939;28;20236;-81
2022/08/13 10:50:33;;;;;;;2.40;2.20;;;28.80;52.80;;;29.22;28.24;97788.09;5201577;28;20198;-81
2022/08/13 10:53:08;;;;;;;2.70;2.50;;;28.70;53.60;;;29.21;28.45;97796.91;5189955;28;20245;-80
2022/08/13 10:55:41;;;;;;;2.20;2.10;;;28.80;53.10;;;29.27;29.11;97791.53;5190737;28;20253;-79
2022/08/13 10:58:18;;;;;;;2.40;2.20;;;28.80;53.70;;;29.46;27.08;97798.19;5194309;28;20198;-79
2022/08/13 11:01:12;;;;;;;2.38;2.17;;;29.00;52.10;;;29.03;27.89;97791.09;5200430;28;20206;-80
2022/08/13 11:03:48;;;;;;;3.30;2.20;;;28.70;52.80;;;28.78;28.68;97787.09;5192043;28;20436;-80
2022/08/13 11:06:37;;;;;;;2.38;2.08;;;28.40;52.80;;;28.88;28.29;97789.56;5185125;28;20237;-81
2022/08/13 11:09:12;;;;;;;2.30;2.20;;;28.40;53.00;;;28.67;29.23;97785.53;5185471;28;20197;-80
2022/08/13 11:11:59;;;;;;;2.22;2.03;;;28.20;53.60;;;28.91;28.87;97778.13;5190604;28;20669;-81
2022/08/13 11:14:34;;;;;;;1.95;1.77;;;28.40;53.40;;;29.10;28.62;97769.03;5192404;28;20893;-81
2022/08/13 11:17:11;;;;;;;3.13;2.00;;;28.60;53.00;;;29.07;28.37;97776.09;5192950;28;20194;-81
2022/08/13 11:20:13;;;;;;;2.33;2.20;;;28.60;53.20;;;28.93;28.02;97768.41;5194926;28;20591;-80
2022/08/13 11:22:53;;;;;;;2.55;2.30;;;28.50;52.20;;;28.55;28.05;97780.47;5191847;28;20217;-80
2022/08/13 11:25:26;;;;;;;2.05;1.95;;;28.20;52.50;;;28.68;28.55;97773.25;5197918;28;20202;-80
2022/08/13 11:28:19;;;;;;;2.00;1.90;;;28.20;52.90;;;28.88;28.08;97786.06;5193357;28;20261;-81
2022/08/13 11:30:56;;;;;;;2.28;2.17;;;28.40;52.30;;;29.02;28.32;97783.19;5196205;28;20226;-81
2022/08/13 11:33:30;;;;;;;2.22;1.90;;;28.60;52.70;;;28.99;27.72;97776.22;5203998;28;20221;-81
2022/08/13 11:36:25;;;;;;;2.25;1.90;;;28.60;52.20;;;29.03;27.38;97771.81;5195583;28;20297;-80
2022/08/13 11:39:00;;;;;;;1.88;1.77;;;28.60;52.00;;;29.42;27.60;97791.25;5198896;28;20194;-80